sensor_id;sensor_type;location;lat;lon;timestamp;pressure;altitude;pressure_sealevel;temperature;humidity
20350;BME280;10332;50.208;18.988;2023-08-17T00:02:13;98281.31;;;27.05;65.97
20350;BME280;10332;50.208;18.988;2023-08-17T00:04:40;98287.06;;;27.02;65.85
20350;BME280;10332;50.208;18.988;2023-08-17T00:07:08;98291.19;;;26.98;66.16
20350;BME280;10332;50.208;18.988;2023-08-17T00:09:35;98296.13;;;26.94;65.98
20350;BME280;10332;50.208;18.988;2023-08-17T00:12:03;98287.66;;;26.91;66.16
20350;BME280;10332;50.208;18.988;2023-08-17T00:14:32;98285.78;;;26.84;66.08
20350;BME280;10332;50.208;18.988;2023-08-17T00:16:59;98281.88;;;26.80;66.27
20350;BME280;10332;50.208;18.988;2023-08-17T00:19:27;98267.66;;;26.73;66.33
20350;BME280;10332;50.208;18.988;2023-08-17T00:21:54;98274.00;;;26.66;66.47
20350;BME280;10332;50.208;18.988;2023-08-17T00:24:22;98269.91;;;26.63;66.25
20350;BME280;10332;50.208;18.988;2023-08-17T00:26:50;98273.00;;;26.60;66.43
20350;BME280;10332;50.208;18.988;2023-08-17T00:29:18;98273.34;;;26.44;67.11
20350;BME280;10332;50.208;18.988;2023-08-17T00:31:45;98280.97;;;26.47;66.93
20350;BME280;10332;50.208;18.988;2023-08-17T00:34:13;98292.25;;;26.36;67.28
20350;BME280;10332;50.208;18.988;2023-08-17T00:36:40;98289.53;;;26.29;67.34
20350;BME280;10332;50.208;18.988;2023-08-17T00:39:08;98285.78;;;26.23;67.07
20350;BME280;10332;50.208;18.988;2023-08-17T00:41:36;98285.81;;;26.30;66.78
20350;BME280;10332;50.208;18.988;2023-08-17T00:44:04;98295.09;;;26.27;66.60
20350;BME280;10332;50.208;18.988;2023-08-17T00:46:32;98304.34;;;26.25;66.61
20350;BME280;10332;50.208;18.988;2023-08-17T00:49:00;98312.91;;;26.07;67.56
20350;BME280;10332;50.208;18.988;2023-08-17T00:51:28;98318.28;;;26.07;67.55
20350;BME280;10332;50.208;18.988;2023-08-17T00:53:58;98319.09;;;26.08;67.27
20350;BME280;10332;50.208;18.988;2023-08-17T00:56:27;98319.09;;;26.08;67.22
20350;BME280;10332;50.208;18.988;2023-08-17T00:58:55;98328.31;;;26.05;67.23
20350;BME280;10332;50.208;18.988;2023-08-17T01:01:23;98326.06;;;26.02;67.30
20350;BME280;10332;50.208;18.988;2023-08-17T01:03:51;98322.16;;;26.04;67.22
20350;BME280;10332;50.208;18.988;2023-08-17T01:06:19;98326.28;;;26.07;66.97
20350;BME280;10332;50.208;18.988;2023-08-17T01:08:47;98328.53;;;26.03;67.28
20350;BME280;10332;50.208;18.988;2023-08-17T01:11:25;98327.28;;;25.99;67.55
20350;BME280;10332;50.208;18.988;2023-08-17T01:14:05;98328.09;;;26.00;67.36
20350;BME280;10332;50.208;18.988;2023-08-17T01:19:51;98331.34;;;25.95;67.65
20350;BME280;10332;50.208;18.988;2023-08-17T01:22:21;98331.16;;;25.97;67.52
20350;BME280;10332;50.208;18.988;2023-08-17T01:24:55;98330.72;;;25.93;67.53
20350;BME280;10332;50.208;18.988;2023-08-17T01:27:29;98327.63;;;25.90;67.65
20350;BME280;10332;50.208;18.988;2023-08-17T01:29:57;98330.31;;;25.90;67.62
20350;BME280;10332;50.208;18.988;2023-08-17T01:32:37;98326.75;;;25.83;68.22
20350;BME280;10332;50.208;18.988;2023-08-17T01:35:24;98342.81;;;25.83;67.92
20350;BME280;10332;50.208;18.988;2023-08-17T01:37:58;98333.34;;;25.80;67.96
20350;BME280;10332;50.208;18.988;2023-08-17T01:40:28;98338.72;;;25.87;68.39
20350;BME280;10332;50.208;18.988;2023-08-17T01:43:02;98340.34;;;25.88;68.35
20350;BME280;10332;50.208;18.988;2023-08-17T01:45:30;98330.41;;;25.75;68.51
20350;BME280;10332;50.208;18.988;2023-08-17T01:47:57;98327.94;;;25.73;68.33
20350;BME280;10332;50.208;18.988;2023-08-17T01:50:25;98327.94;;;25.73;68.84
20350;BME280;10332;50.208;18.988;2023-08-17T01:52:52;98339.31;;;25.61;69.27
20350;BME280;10332;50.208;18.988;2023-08-17T01:55:21;98345.88;;;25.58;69.46
20350;BME280;10332;50.208;18.988;2023-08-17T01:57:52;98329.22;;;25.56;69.22
20350;BME280;10332;50.208;18.988;2023-08-17T02:00:19;98330.88;;;25.57;69.31
20350;BME280;10332;50.208;18.988;2023-08-17T02:02:47;98331.63;;;25.51;69.61
20350;BME280;10332;50.208;18.988;2023-08-17T02:05:14;98325.56;;;25.36;70.83
20350;BME280;10332;50.208;18.988;2023-08-17T02:07:42;98320.84;;;25.38;70.52
20350;BME280;10332;50.208;18.988;2023-08-17T02:10:09;98327.00;;;25.38;70.57
20350;BME280;10332;50.208;18.988;2023-08-17T02:12:37;98336.50;;;25.41;70.76
20350;BME280;10332;50.208;18.988;2023-08-17T02:15:05;98330.09;;;25.35;70.71
20350;BME280;10332;50.208;18.988;2023-08-17T02:17:32;98336.81;;;25.31;71.38
20350;BME280;10332;50.208;18.988;2023-08-17T02:20:00;98332.44;;;25.24;72.08
20350;BME280;10332;50.208;18.988;2023-08-17T02:22:27;98332.44;;;25.24;72.02
20350;BME280;10332;50.208;18.988;2023-08-17T02:24:55;98335.63;;;25.12;72.83
20350;BME280;10332;50.208;18.988;2023-08-17T02:27:22;98333.22;;;25.17;72.29
20350;BME280;10332;50.208;18.988;2023-08-17T02:29:50;98332.31;;;25.10;72.69
20350;BME280;10332;50.208;18.988;2023-08-17T02:32:18;98333.69;;;25.06;72.85
20350;BME280;10332;50.208;18.988;2023-08-17T02:34:45;98337.41;;;25.05;72.93
20350;BME280;10332;50.208;18.988;2023-08-17T02:37:12;98335.13;;;25.02;73.11
20350;BME280;10332;50.208;18.988;2023-08-17T02:39:41;98339.66;;;24.87;74.92
20350;BME280;10332;50.208;18.988;2023-08-17T02:42:08;98332.47;;;24.87;74.27
20350;BME280;10332;50.208;18.988;2023-08-17T02:44:35;98328.91;;;24.80;74.68
20350;BME280;10332;50.208;18.988;2023-08-17T02:47:03;98333.78;;;24.77;74.73
20350;BME280;10332;50.208;18.988;2023-08-17T02:49:30;98334.91;;;24.68;75.92
20350;BME280;10332;50.208;18.988;2023-08-17T02:51:58;98335.13;;;24.66;75.71
20350;BME280;10332;50.208;18.988;2023-08-17T02:54:25;98338.72;;;24.58;76.67
20350;BME280;10332;50.208;18.988;2023-08-17T02:56:53;98338.34;;;24.61;76.15
20350;BME280;10332;50.208;18.988;2023-08-17T02:59:20;98338.09;;;24.56;76.56
20350;BME280;10332;50.208;18.988;2023-08-17T03:01:47;98336.53;;;24.47;77.51
20350;BME280;10332;50.208;18.988;2023-08-17T03:04:15;98333.59;;;24.42;77.95
20350;BME280;10332;50.208;18.988;2023-08-17T03:06:42;98342.53;;;24.34;78.85
20350;BME280;10332;50.208;18.988;2023-08-17T03:09:10;98337.19;;;24.34;78.51
20350;BME280;10332;50.208;18.988;2023-08-17T03:11:38;98338.56;;;24.45;77.96
20350;BME280;10332;50.208;18.988;2023-08-17T03:14:05;98338.94;;;24.42;78.11
20350;BME280;10332;50.208;18.988;2023-08-17T03:16:33;98329.47;;;24.40;78.26
20350;BME280;10332;50.208;18.988;2023-08-17T03:19:01;98329.19;;;24.34;78.89
20350;BME280;10332;50.208;18.988;2023-08-17T03:21:28;98332.22;;;24.31;79.23
20350;BME280;10332;50.208;18.988;2023-08-17T03:23:55;98331.38;;;24.31;79.37
20350;BME280;10332;50.208;18.988;2023-08-17T03:26:23;98336.44;;;24.26;80.17
20350;BME280;10332;50.208;18.988;2023-08-17T03:28:50;98339.75;;;24.28;80.08
20350;BME280;10332;50.208;18.988;2023-08-17T03:31:20;98335.78;;;24.24;80.52
20350;BME280;10332;50.208;18.988;2023-08-17T03:33:49;98327.06;;;24.30;79.90
20350;BME280;10332;50.208;18.988;2023-08-17T03:36:16;98326.34;;;24.36;79.09
20350;BME280;10332;50.208;18.988;2023-08-17T03:38:44;98326.78;;;24.40;79.03
20350;BME280;10332;50.208;18.988;2023-08-17T03:41:11;98329.28;;;24.41;78.80
20350;BME280;10332;50.208;18.988;2023-08-17T03:43:38;98331.50;;;24.38;79.43
20350;BME280;10332;50.208;18.988;2023-08-17T03:46:07;98319.03;;;24.30;80.62
20350;BME280;10332;50.208;18.988;2023-08-17T03:48:35;98312.88;;;24.29;80.52
20350;BME280;10332;50.208;18.988;2023-08-17T03:51:02;98313.34;;;24.33;79.61
20350;BME280;10332;50.208;18.988;2023-08-17T03:53:30;98320.00;;;24.37;79.41
20350;BME280;10332;50.208;18.988;2023-08-17T03:55:57;98317.56;;;24.42;79.37
20350;BME280;10332;50.208;18.988;2023-08-17T03:58:25;98309.22;;;24.45;78.85
20350;BME280;10332;50.208;18.988;2023-08-17T04:01:00;98316.84;;;24.48;78.69
20350;BME280;10332;50.208;18.988;2023-08-17T04:03:29;98327.13;;;24.51;78.63
20350;BME280;10332;50.208;18.988;2023-08-17T04:05:56;98330.81;;;24.50;78.70
20350;BME280;10332;50.208;18.988;2023-08-17T04:08:24;98330.63;;;24.52;78.62
20350;BME280;10332;50.208;18.988;2023-08-17T04:10:51;98333.13;;;24.53;78.61
20350;BME280;10332;50.208;18.988;2023-08-17T04:13:18;98337.06;;;24.57;78.54
20350;BME280;10332;50.208;18.988;2023-08-17T04:15:46;98332.75;;;24.56;78.40
20350;BME280;10332;50.208;18.988;2023-08-17T04:18:13;98340.38;;;24.59;78.29
20350;BME280;10332;50.208;18.988;2023-08-17T04:20:41;98349.00;;;24.61;77.94
20350;BME280;10332;50.208;18.988;2023-08-17T04:23:08;98349.50;;;24.65;78.20
20350;BME280;10332;50.208;18.988;2023-08-17T04:25:35;98350.31;;;24.66;78.10
20350;BME280;10332;50.208;18.988;2023-08-17T04:28:03;98345.78;;;24.66;78.26
20350;BME280;10332;50.208;18.988;2023-08-17T04:30:31;98346.63;;;24.67;78.18
20350;BME280;10332;50.208;18.988;2023-08-17T04:32:59;98354.25;;;24.70;78.13
20350;BME280;10332;50.208;18.988;2023-08-17T04:35:26;98351.22;;;24.73;77.74
20350;BME280;10332;50.208;18.988;2023-08-17T04:37:53;98356.19;;;24.76;77.75
20350;BME280;10332;50.208;18.988;2023-08-17T04:40:21;98351.28;;;24.79;77.46
20350;BME280;10332;50.208;18.988;2023-08-17T04:42:49;98346.75;;;24.80;77.69
20350;BME280;10332;50.208;18.988;2023-08-17T04:45:16;98345.00;;;24.87;77.61
20350;BME280;10332;50.208;18.988;2023-08-17T04:47:44;98349.38;;;24.95;77.27
20350;BME280;10332;50.208;18.988;2023-08-17T04:50:11;98354.44;;;25.04;77.04
20350;BME280;10332;50.208;18.988;2023-08-17T04:52:46;98363.19;;;25.13;76.75
20350;BME280;10332;50.208;18.988;2023-08-17T04:55:14;98363.06;;;25.21;76.77
20350;BME280;10332;50.208;18.988;2023-08-17T04:57:42;98368.66;;;25.26;76.54
20350;BME280;10332;50.208;18.988;2023-08-17T05:00:10;98372.41;;;25.32;76.37
20350;BME280;10332;50.208;18.988;2023-08-17T05:02:38;98377.38;;;25.35;76.13
20350;BME280;10332;50.208;18.988;2023-08-17T05:05:10;98380.69;;;25.37;76.34
20350;BME280;10332;50.208;18.988;2023-08-17T05:07:37;98379.28;;;25.41;76.33
20350;BME280;10332;50.208;18.988;2023-08-17T05:10:05;98376.84;;;25.46;76.06
20350;BME280;10332;50.208;18.988;2023-08-17T05:12:33;98378.13;;;25.50;76.06
20350;BME280;10332;50.208;18.988;2023-08-17T05:15:00;98387.78;;;25.51;76.21
20350;BME280;10332;50.208;18.988;2023-08-17T05:17:28;98392.78;;;25.54;76.50
20350;BME280;10332;50.208;18.988;2023-08-17T05:19:56;98385.38;;;25.56;76.61
20350;BME280;10332;50.208;18.988;2023-08-17T05:22:23;98401.63;;;25.55;76.78
20350;BME280;10332;50.208;18.988;2023-08-17T05:24:51;98408.00;;;25.54;77.57
20350;BME280;10332;50.208;18.988;2023-08-17T05:27:18;98406.50;;;25.51;77.97
20350;BME280;10332;50.208;18.988;2023-08-17T05:29:46;98412.88;;;25.50;77.76
20350;BME280;10332;50.208;18.988;2023-08-17T05:32:13;98408.16;;;25.52;77.89
20350;BME280;10332;50.208;18.988;2023-08-17T05:34:40;98411.84;;;25.51;78.28
20350;BME280;10332;50.208;18.988;2023-08-17T05:37:09;98402.44;;;25.55;78.05
20350;BME280;10332;50.208;18.988;2023-08-17T05:39:36;98405.75;;;25.57;77.73
20350;BME280;10332;50.208;18.988;2023-08-17T05:42:04;98407.03;;;25.61;77.75
20350;BME280;10332;50.208;18.988;2023-08-17T05:44:31;98407.66;;;25.63;77.60
20350;BME280;10332;50.208;18.988;2023-08-17T05:46:59;98405.41;;;25.67;77.57
20350;BME280;10332;50.208;18.988;2023-08-17T05:49:26;98406.53;;;25.72;76.99
20350;BME280;10332;50.208;18.988;2023-08-17T05:51:54;98402.44;;;25.77;77.27
20350;BME280;10332;50.208;18.988;2023-08-17T05:54:21;98402.69;;;25.82;77.03
20350;BME280;10332;50.208;18.988;2023-08-17T05:56:49;98406.44;;;25.87;76.85
20350;BME280;10332;50.208;18.988;2023-08-17T05:59:16;98409.34;;;25.92;76.80
20350;BME280;10332;50.208;18.988;2023-08-17T06:01:44;98409.41;;;25.99;76.88
20350;BME280;10332;50.208;18.988;2023-08-17T06:04:11;98396.31;;;26.11;76.50
20350;BME280;10332;50.208;18.988;2023-08-17T06:06:39;98395.75;;;26.22;76.02
20350;BME280;10332;50.208;18.988;2023-08-17T06:09:07;98401.97;;;26.29;76.09
20350;BME280;10332;50.208;18.988;2023-08-17T06:11:36;98401.00;;;26.37;75.60
20350;BME280;10332;50.208;18.988;2023-08-17T06:14:04;98405.78;;;26.41;75.56
20350;BME280;10332;50.208;18.988;2023-08-17T06:16:32;98396.53;;;26.44;75.55
20350;BME280;10332;50.208;18.988;2023-08-17T06:19:00;98403.75;;;26.50;75.37
20350;BME280;10332;50.208;18.988;2023-08-17T06:21:27;98403.38;;;26.53;75.20
20350;BME280;10332;50.208;18.988;2023-08-17T06:23:55;98400.91;;;26.58;75.17
20350;BME280;10332;50.208;18.988;2023-08-17T06:26:22;98405.69;;;26.63;74.72
20350;BME280;10332;50.208;18.988;2023-08-17T06:28:50;98407.56;;;26.69;74.84
20350;BME280;10332;50.208;18.988;2023-08-17T06:31:17;98409.44;;;26.75;74.31
20350;BME280;10332;50.208;18.988;2023-08-17T06:33:45;98406.59;;;26.83;74.38
20350;BME280;10332;50.208;18.988;2023-08-17T06:36:13;98407.81;;;26.80;74.93
20350;BME280;10332;50.208;18.988;2023-08-17T06:38:43;98410.72;;;26.85;74.49
20350;BME280;10332;50.208;18.988;2023-08-17T06:41:11;98410.16;;;26.97;74.04
20350;BME280;10332;50.208;18.988;2023-08-17T06:43:38;98417.03;;;27.06;73.96
20350;BME280;10332;50.208;18.988;2023-08-17T06:46:06;98409.81;;;27.20;73.46
20350;BME280;10332;50.208;18.988;2023-08-17T06:48:33;98417.91;;;27.33;73.03
20350;BME280;10332;50.208;18.988;2023-08-17T06:51:01;98412.34;;;27.41;72.74
20350;BME280;10332;50.208;18.988;2023-08-17T06:53:31;98421.44;;;27.53;72.52
20350;BME280;10332;50.208;18.988;2023-08-17T06:55:59;98414.00;;;27.62;71.84
20350;BME280;10332;50.208;18.988;2023-08-17T06:58:29;98415.91;;;27.68;71.85
20350;BME280;10332;50.208;18.988;2023-08-17T07:00:57;98412.38;;;27.67;71.86
20350;BME280;10332;50.208;18.988;2023-08-17T07:03:24;98413.59;;;27.65;72.08
20350;BME280;10332;50.208;18.988;2023-08-17T07:05:52;98415.28;;;27.66;72.09
20350;BME280;10332;50.208;18.988;2023-08-17T07:08:19;98408.22;;;27.65;72.10
20350;BME280;10332;50.208;18.988;2023-08-17T07:10:47;98419.59;;;27.67;72.11
20350;BME280;10332;50.208;18.988;2023-08-17T07:13:14;98423.13;;;27.67;71.81
20350;BME280;10332;50.208;18.988;2023-08-17T07:15:41;98415.69;;;27.76;71.99
20350;BME280;10332;50.208;18.988;2023-08-17T07:18:09;98421.06;;;27.89;71.41
20350;BME280;10332;50.208;18.988;2023-08-17T07:20:36;98421.03;;;28.03;70.92
20350;BME280;10332;50.208;18.988;2023-08-17T07:23:04;98424.13;;;28.19;70.71
20350;BME280;10332;50.208;18.988;2023-08-17T07:25:31;98411.75;;;28.32;70.21
20350;BME280;10332;50.208;18.988;2023-08-17T07:28:00;98413.56;;;28.38;70.17
20350;BME280;10332;50.208;18.988;2023-08-17T07:30:27;98417.72;;;28.40;69.92
20350;BME280;10332;50.208;18.988;2023-08-17T07:32:55;98414.44;;;28.32;70.30
20350;BME280;10332;50.208;18.988;2023-08-17T07:35:23;98409.88;;;28.32;70.29
20350;BME280;10332;50.208;18.988;2023-08-17T07:37:50;98410.28;;;28.36;70.45
20350;BME280;10332;50.208;18.988;2023-08-17T07:40:35;98410.06;;;28.44;69.91
20350;BME280;10332;50.208;18.988;2023-08-17T07:43:03;98407.31;;;28.57;69.39
20350;BME280;10332;50.208;18.988;2023-08-17T07:45:30;98409.59;;;28.67;68.90
20350;BME280;10332;50.208;18.988;2023-08-17T07:47:58;98414.69;;;28.75;68.81
20350;BME280;10332;50.208;18.988;2023-08-17T07:50:25;98411.75;;;28.83;68.29
20350;BME280;10332;50.208;18.988;2023-08-17T07:52:53;98412.19;;;28.80;68.41
20350;BME280;10332;50.208;18.988;2023-08-17T07:55:21;98406.38;;;28.83;68.46
20350;BME280;10332;50.208;18.988;2023-08-17T07:57:48;98416.91;;;28.98;68.12
20350;BME280;10332;50.208;18.988;2023-08-17T08:00:17;98417.47;;;29.13;67.88
20350;BME280;10332;50.208;18.988;2023-08-17T08:02:46;98422.69;;;29.39;67.36
20350;BME280;10332;50.208;18.988;2023-08-17T08:05:14;98431.25;;;29.61;66.85
20350;BME280;10332;50.208;18.988;2023-08-17T08:07:42;98420.75;;;29.78;66.26
20350;BME280;10332;50.208;18.988;2023-08-17T08:10:10;98416.16;;;29.85;66.22
20350;BME280;10332;50.208;18.988;2023-08-17T08:12:37;98417.75;;;29.93;65.89
20350;BME280;10332;50.208;18.988;2023-08-17T08:15:05;98416.97;;;29.86;66.79
20350;BME280;10332;50.208;18.988;2023-08-17T08:17:33;98409.94;;;29.85;66.23
20350;BME280;10332;50.208;18.988;2023-08-17T08:20:01;98427.41;;;29.76;66.63
20350;BME280;10332;50.208;18.988;2023-08-17T08:22:29;98414.06;;;29.87;65.92
20350;BME280;10332;50.208;18.988;2023-08-17T08:24:58;98414.59;;;29.96;65.52
20350;BME280;10332;50.208;18.988;2023-08-17T08:27:25;98408.34;;;30.02;65.23
20350;BME280;10332;50.208;18.988;2023-08-17T08:29:53;98413.00;;;30.13;65.28
20350;BME280;10332;50.208;18.988;2023-08-17T08:32:20;98404.25;;;30.18;65.15
20350;BME280;10332;50.208;18.988;2023-08-17T08:34:48;98404.66;;;30.40;64.80
20350;BME280;10332;50.208;18.988;2023-08-17T08:37:15;98405.53;;;30.52;64.80
20350;BME280;10332;50.208;18.988;2023-08-17T08:39:54;98406.44;;;30.64;64.16
20350;BME280;10332;50.208;18.988;2023-08-17T08:42:25;98403.91;;;30.88;63.73
20350;BME280;10332;50.208;18.988;2023-08-17T08:44:53;98413.16;;;31.10;63.21
20350;BME280;10332;50.208;18.988;2023-08-17T08:47:22;98400.69;;;31.27;62.46
20350;BME280;10332;50.208;18.988;2023-08-17T08:50:00;98398.13;;;31.44;62.53
20350;BME280;10332;50.208;18.988;2023-08-17T08:52:38;98395.97;;;31.64;61.79
20350;BME280;10332;50.208;18.988;2023-08-17T08:55:15;98393.88;;;31.90;61.11
20350;BME280;10332;50.208;18.988;2023-08-17T08:57:46;98390.94;;;32.15;60.43
20350;BME280;10332;50.208;18.988;2023-08-17T09:00:18;98390.47;;;32.30;60.35
20350;BME280;10332;50.208;18.988;2023-08-17T09:02:47;98393.38;;;32.52;59.77
20350;BME280;10332;50.208;18.988;2023-08-17T09:05:16;98389.00;;;32.74;59.32
20350;BME280;10332;50.208;18.988;2023-08-17T09:07:48;98379.66;;;32.93;58.65
20350;BME280;10332;50.208;18.988;2023-08-17T09:10:17;98380.13;;;33.19;57.59
20350;BME280;10332;50.208;18.988;2023-08-17T09:12:46;98378.78;;;33.50;56.98
20350;BME280;10332;50.208;18.988;2023-08-17T09:15:18;98368.91;;;33.89;56.10
20350;BME280;10332;50.208;18.988;2023-08-17T09:17:46;98372.81;;;34.37;54.99
20350;BME280;10332;50.208;18.988;2023-08-17T09:20:42;98380.19;;;35.07;53.32
20350;BME280;10332;50.208;18.988;2023-08-17T09:23:20;98373.25;;;35.80;51.44
20350;BME280;10332;50.208;18.988;2023-08-17T09:25:49;98370.22;;;36.61;49.99
20350;BME280;10332;50.208;18.988;2023-08-17T09:28:19;98367.16;;;37.71;47.88
20350;BME280;10332;50.208;18.988;2023-08-17T09:30:58;98377.72;;;39.43;45.03
20350;BME280;10332;50.208;18.988;2023-08-17T09:33:29;98385.88;;;41.45;41.29
20350;BME280;10332;50.208;18.988;2023-08-17T09:35:59;98388.13;;;46.50;34.21
20350;BME280;10332;50.208;18.988;2023-08-17T09:38:27;98397.75;;;49.96;28.45
20350;BME280;10332;50.208;18.988;2023-08-17T09:40:57;98396.31;;;51.35;27.79
20350;BME280;10332;50.208;18.988;2023-08-17T09:43:25;98383.13;;;51.32;27.15
20350;BME280;10332;50.208;18.988;2023-08-17T09:45:57;98380.34;;;50.43;27.66
20350;BME280;10332;50.208;18.988;2023-08-17T09:48:25;98392.91;;;53.10;25.30
20350;BME280;10332;50.208;18.988;2023-08-17T09:50:59;98395.22;;;54.63;23.51
20350;BME280;10332;50.208;18.988;2023-08-17T09:53:29;98393.31;;;57.74;21.31
20350;BME280;10332;50.208;18.988;2023-08-17T09:55:59;98397.56;;;59.78;19.55
20350;BME280;10332;50.208;18.988;2023-08-17T09:58:26;98402.66;;;61.00;18.48
20350;BME280;10332;50.208;18.988;2023-08-17T10:01:03;98403.97;;;61.88;17.46
20350;BME280;10332;50.208;18.988;2023-08-17T10:03:34;98402.53;;;62.45;16.49
20350;BME280;10332;50.208;18.988;2023-08-17T10:06:08;98400.41;;;62.49;16.53
20350;BME280;10332;50.208;18.988;2023-08-17T10:08:47;98395.09;;;61.69;15.80
20350;BME280;10332;50.208;18.988;2023-08-17T10:11:20;98386.66;;;60.73;16.85
20350;BME280;10332;50.208;18.988;2023-08-17T10:13:59;98383.72;;;60.10;16.51
20350;BME280;10332;50.208;18.988;2023-08-17T10:16:45;98391.69;;;59.69;17.72
20350;BME280;10332;50.208;18.988;2023-08-17T10:19:57;98374.78;;;59.07;17.12
20350;BME280;10332;50.208;18.988;2023-08-17T10:22:39;98371.50;;;58.78;18.05
20350;BME280;10332;50.208;18.988;2023-08-17T10:25:13;98368.41;;;58.66;18.35
20350;BME280;10332;50.208;18.988;2023-08-17T10:27:43;98363.69;;;58.55;18.37
20350;BME280;10332;50.208;18.988;2023-08-17T10:30:12;98366.75;;;58.31;18.45
20350;BME280;10332;50.208;18.988;2023-08-17T10:32:40;98354.31;;;58.28;18.55
20350;BME280;10332;50.208;18.988;2023-08-17T10:35:14;98349.97;;;58.20;18.15
20350;BME280;10332;50.208;18.988;2023-08-17T10:37:43;98349.78;;;57.93;17.51
20350;BME280;10332;50.208;18.988;2023-08-17T10:40:11;98355.56;;;57.71;17.99
20350;BME280;10332;50.208;18.988;2023-08-17T10:42:42;98350.63;;;57.86;17.11
20350;BME280;10332;50.208;18.988;2023-08-17T10:45:38;98356.75;;;58.26;17.13
20350;BME280;10332;50.208;18.988;2023-08-17T10:50:39;98365.69;;;59.81;16.13
20350;BME280;10332;50.208;18.988;2023-08-17T10:53:12;98368.97;;;60.50;15.58
20350;BME280;10332;50.208;18.988;2023-08-17T10:55:47;98375.34;;;60.73;15.39
20350;BME280;10332;50.208;18.988;2023-08-17T10:58:19;98372.25;;;58.45;15.54
20350;BME280;10332;50.208;18.988;2023-08-17T11:00:47;98361.63;;;55.40;17.33
20350;BME280;10332;50.208;18.988;2023-08-17T11:03:20;98367.28;;;54.12;18.14
20350;BME280;10332;50.208;18.988;2023-08-17T11:05:57;98358.19;;;50.81;20.14
20350;BME280;10332;50.208;18.988;2023-08-17T11:08:32;98351.06;;;48.13;21.78
20350;BME280;10332;50.208;18.988;2023-08-17T11:11:12;98340.19;;;45.99;23.42
20350;BME280;10332;50.208;18.988;2023-08-17T11:13:43;98336.97;;;44.41;25.12
20350;BME280;10332;50.208;18.988;2023-08-17T11:16:14;98337.91;;;42.98;26.46
20350;BME280;10332;50.208;18.988;2023-08-17T11:18:46;98330.28;;;41.72;27.99
20350;BME280;10332;50.208;18.988;2023-08-17T11:21:14;98320.50;;;40.76;29.18
20350;BME280;10332;50.208;18.988;2023-08-17T11:23:45;98319.16;;;39.83;30.63
20350;BME280;10332;50.208;18.988;2023-08-17T11:26:16;98332.38;;;38.98;31.84
20350;BME280;10332;50.208;18.988;2023-08-17T11:28:45;98341.19;;;38.20;33.01
20350;BME280;10332;50.208;18.988;2023-08-17T11:31:14;98373.38;;;37.11;35.48
20350;BME280;10332;50.208;18.988;2023-08-17T11:33:43;98381.03;;;35.99;38.59
20350;BME280;10332;50.208;18.988;2023-08-17T11:36:12;98386.38;;;35.30;41.09
20350;BME280;10332;50.208;18.988;2023-08-17T11:38:42;98406.72;;;34.18;45.77
20350;BME280;10332;50.208;18.988;2023-08-17T11:41:11;98396.03;;;32.87;47.46
20350;BME280;10332;50.208;18.988;2023-08-17T11:43:43;98401.97;;;32.60;47.92
20350;BME280;10332;50.208;18.988;2023-08-17T11:46:12;98411.28;;;32.41;48.53
20350;BME280;10332;50.208;18.988;2023-08-17T11:48:40;98414.81;;;32.18;51.36
20350;BME280;10332;50.208;18.988;2023-08-17T11:51:07;98411.97;;;31.89;54.38
20350;BME280;10332;50.208;18.988;2023-08-17T11:53:36;98402.44;;;31.75;55.24
20350;BME280;10332;50.208;18.988;2023-08-17T11:56:06;98392.56;;;31.69;54.12
20350;BME280;10332;50.208;18.988;2023-08-17T12:01:11;98378.47;;;31.55;54.25
20350;BME280;10332;50.208;18.988;2023-08-17T12:03:40;98372.69;;;31.52;54.53
20350;BME280;10332;50.208;18.988;2023-08-17T12:06:11;98366.13;;;31.48;55.13
20350;BME280;10332;50.208;18.988;2023-08-17T12:08:45;98358.53;;;31.26;56.64
20350;BME280;10332;50.208;18.988;2023-08-17T12:11:17;98364.47;;;31.17;55.61
20350;BME280;10332;50.208;18.988;2023-08-17T12:13:52;98366.25;;;31.11;56.17
20350;BME280;10332;50.208;18.988;2023-08-17T12:16:20;98365.19;;;31.12;56.31
20350;BME280;10332;50.208;18.988;2023-08-17T12:18:50;98366.81;;;31.13;57.51
20350;BME280;10332;50.208;18.988;2023-08-17T12:21:22;98374.44;;;31.16;56.93
20350;BME280;10332;50.208;18.988;2023-08-17T12:23:51;98363.84;;;31.21;57.06
20350;BME280;10332;50.208;18.988;2023-08-17T12:26:20;98358.63;;;31.20;57.05
20350;BME280;10332;50.208;18.988;2023-08-17T12:28:49;98345.16;;;31.20;57.24
20350;BME280;10332;50.208;18.988;2023-08-17T12:31:22;98343.72;;;31.17;55.54
20350;BME280;10332;50.208;18.988;2023-08-17T12:33:52;98355.56;;;31.16;54.96
20350;BME280;10332;50.208;18.988;2023-08-17T12:36:19;98354.97;;;31.14;55.02
20350;BME280;10332;50.208;18.988;2023-08-17T12:38:48;98367.66;;;31.14;55.49
20350;BME280;10332;50.208;18.988;2023-08-17T12:41:15;98366.94;;;31.18;55.10
20350;BME280;10332;50.208;18.988;2023-08-17T12:43:43;98383.91;;;31.25;55.64
20350;BME280;10332;50.208;18.988;2023-08-17T12:46:11;98389.44;;;31.30;55.90
20350;BME280;10332;50.208;18.988;2023-08-17T12:48:39;98396.13;;;31.28;55.35
20350;BME280;10332;50.208;18.988;2023-08-17T12:51:06;98401.72;;;31.26;54.47
20350;BME280;10332;50.208;18.988;2023-08-17T12:53:34;98397.91;;;31.16;55.10
20350;BME280;10332;50.208;18.988;2023-08-17T12:56:01;98395.69;;;31.13;54.59
20350;BME280;10332;50.208;18.988;2023-08-17T12:58:29;98396.50;;;31.13;54.50
20350;BME280;10332;50.208;18.988;2023-08-17T13:00:56;98395.69;;;31.13;54.87
20350;BME280;10332;50.208;18.988;2023-08-17T13:03:24;98396.59;;;31.06;55.07
20350;BME280;10332;50.208;18.988;2023-08-17T13:05:52;98410.31;;;31.05;54.95
20350;BME280;10332;50.208;18.988;2023-08-17T13:08:19;98400.41;;;30.99;54.41
20350;BME280;10332;50.208;18.988;2023-08-17T13:10:47;98408.81;;;30.91;54.43